createdAt,value
2023-06-11T00:01:28.823Z,101430.72
2023-06-11T00:03:55.841Z,101436.69
2023-06-11T00:06:24.237Z,101434.72
2023-06-11T00:08:52.580Z,101428.75
2023-06-11T00:11:19.987Z,101434.66
2023-06-11T00:13:46.869Z,101427.59
2023-06-11T00:18:43.089Z,101426.69
2023-06-11T00:21:10.030Z,101430.22
2023-06-11T00:23:37.822Z,101432.63
2023-06-11T00:26:05.340Z,101428.53
2023-06-11T00:28:32.012Z,101426.31
2023-06-11T00:30:58.898Z,101426.03
2023-06-11T00:33:25.567Z,101425.44
2023-06-11T00:35:53.756Z,101426.53
2023-06-11T00:38:22.261Z,101428.66
2023-06-11T00:40:49.015Z,101421.59
2023-06-11T00:43:18.381Z,101426.47
2023-06-11T00:45:48.388Z,101429.44
2023-06-11T00:48:15.075Z,101423.44
2023-06-11T00:50:48.701Z,101424.78
2023-06-11T00:53:18.985Z,101418.78
2023-06-11T00:55:46.406Z,101421.97
2023-06-11T00:58:14.868Z,101423.56
2023-06-11T01:00:44.681Z,101426.78
2023-06-11T01:03:18.952Z,101418.88
2023-06-11T01:05:49.671Z,101426.22
2023-06-11T01:08:20.605Z,101423.75
2023-06-11T01:10:48.468Z,101426.72
2023-06-11T01:13:15.229Z,101424.25
2023-06-11T01:15:41.921Z,101423.69
2023-06-11T01:18:13.867Z,101428.81
2023-06-11T01:20:46.328Z,101433.09
2023-06-11T01:23:25.194Z,101430.88
2023-06-11T01:26:04.358Z,101431.38
2023-06-11T01:28:35.876Z,101434.59
2023-06-11T01:31:09.769Z,101432.88
2023-06-11T01:33:37.219Z,101431.69
2023-06-11T01:36:06.628Z,101440.34
2023-06-11T01:38:42.503Z,101430.25
2023-06-11T01:41:09.602Z,101430.75
2023-06-11T01:43:37.878Z,101430.41
2023-06-11T01:46:04.728Z,101426.59
2023-06-11T01:48:31.509Z,101436.25
2023-06-11T01:50:58.211Z,101422.41
2023-06-11T01:53:25.567Z,101422.88
2023-06-11T01:55:52.477Z,101429.06
2023-06-11T01:58:19.642Z,101426.00
2023-06-11T02:00:48.986Z,101424.06
2023-06-11T02:03:17.035Z,101426.44
2023-06-11T02:05:47.055Z,101428.81
2023-06-11T02:08:13.929Z,101433.34
2023-06-11T02:10:40.612Z,101434.09
2023-06-11T02:13:07.607Z,101424.56
2023-06-11T02:15:34.282Z,101425.03
2023-06-11T02:18:02.686Z,101430.72
2023-06-11T02:20:29.386Z,101430.97
2023-06-11T02:22:56.523Z,101433.91
2023-06-11T02:25:23.269Z,101433.31
2023-06-11T02:27:50.682Z,101427.31
2023-06-11T02:30:17.695Z,101430.03
2023-06-11T02:32:45.956Z,101432.97
2023-06-11T02:35:14.159Z,101431.31
2023-06-11T02:37:41.009Z,101432.38
2023-06-11T02:40:09.205Z,101432.63
2023-06-11T02:42:36.109Z,101433.97
2023-06-11T02:45:03.053Z,101441.50
2023-06-11T02:47:30.856Z,101429.25
2023-06-11T02:49:57.701Z,101437.63
2023-06-11T02:52:25.783Z,101435.19
2023-06-11T02:54:52.765Z,101432.94
2023-06-11T02:57:19.408Z,101439.41
2023-06-11T02:59:46.152Z,101441.56
2023-06-11T03:02:12.974Z,101446.38
2023-06-11T03:04:40.603Z,101437.69
2023-06-11T03:07:07.351Z,101431.69
2023-06-11T03:09:35.352Z,101439.25
2023-06-11T03:12:02.250Z,101443.84
2023-06-11T03:14:29.076Z,101439.72
2023-06-11T03:16:55.825Z,101443.50
2023-06-11T03:19:22.534Z,101441.00
2023-06-11T03:21:49.934Z,101436.34
2023-06-11T03:24:17.048Z,101437.63
2023-06-11T03:26:45.990Z,101443.31
2023-06-11T03:29:12.702Z,101438.38
2023-06-11T03:31:41.439Z,101442.13
2023-06-11T03:34:08.348Z,101445.56
2023-06-11T03:36:35.179Z,101446.88
2023-06-11T03:39:02.488Z,101444.66
2023-06-11T03:41:29.323Z,101444.91
2023-06-11T03:43:57.828Z,101439.72
2023-06-11T03:46:24.750Z,101439.97
2023-06-11T03:48:51.634Z,101449.41
2023-06-11T03:51:18.398Z,101448.81
2023-06-11T03:53:45.094Z,101447.16
2023-06-11T03:56:12.823Z,101449.03
2023-06-11T03:58:39.553Z,101450.91
2023-06-11T04:01:07.965Z,101449.28
2023-06-11T04:03:34.976Z,101449.28
2023-06-11T04:06:02.444Z,101449.28
2023-06-11T04:08:29.245Z,101453.84
2023-06-11T04:10:56.038Z,101454.13
2023-06-11T04:13:22.892Z,101460.59
2023-06-11T04:15:49.572Z,101454.59
2023-06-11T04:18:17.668Z,101455.63
2023-06-11T04:20:44.358Z,101460.22
2023-06-11T04:23:11.320Z,101467.50
2023-06-11T04:25:40.335Z,101461.28
2023-06-11T04:28:07.148Z,101468.59
2023-06-11T04:30:34.887Z,101466.94
2023-06-11T04:33:04.499Z,101463.97
2023-06-11T04:35:35.514Z,101464.81
2023-06-11T04:38:04.280Z,101475.63
2023-06-11T04:40:33.436Z,101476.44
2023-06-11T04:43:00.122Z,101471.03
2023-06-11T04:45:28.104Z,101471.88
2023-06-11T04:47:55.169Z,101468.09
2023-06-11T04:50:22.416Z,101474.34
2023-06-11T04:52:53.159Z,101477.88
2023-06-11T04:55:22.830Z,101478.91
2023-06-11T04:57:51.373Z,101469.75
2023-06-11T05:00:18.938Z,101466.81
2023-06-11T05:02:46.055Z,101468.47
2023-06-11T05:05:14.235Z,101461.72
2023-06-11T05:07:42.855Z,101463.38
2023-06-11T05:10:11.176Z,101469.63
2023-06-11T05:12:37.961Z,101461.28
2023-06-11T05:15:06.296Z,101463.97
2023-06-11T05:17:34.089Z,101462.09
2023-06-11T05:20:01.203Z,101461.84
2023-06-11T05:22:28.018Z,101463.47
2023-06-11T05:24:54.800Z,101467.81
2023-06-11T05:27:24.873Z,101468.41
2023-06-11T05:29:52.591Z,101462.78
2023-06-11T05:32:19.369Z,101464.16
2023-06-11T05:34:47.269Z,101472.03
2023-06-11T05:37:13.994Z,101470.97
2023-06-11T05:39:40.809Z,101471.81
2023-06-11T05:42:08.266Z,101474.28
2023-06-11T05:44:36.687Z,101478.38
2023-06-11T05:47:03.892Z,101474.03
2023-06-11T05:49:30.831Z,101480.84
2023-06-11T05:51:57.550Z,101475.41
2023-06-11T05:54:24.177Z,101478.72
2023-06-11T05:56:53.424Z,101476.00
2023-06-11T05:59:20.174Z,101483.63
2023-06-11T06:01:48.574Z,101475.28
2023-06-11T06:04:17.156Z,101480.22
2023-06-11T06:06:44.112Z,101478.09
2023-06-11T06:09:11.133Z,101483.00
2023-06-11T06:11:38.106Z,101489.00
2023-06-11T06:14:04.965Z,101491.22
2023-06-11T06:16:33.018Z,101497.22
2023-06-11T06:19:01.181Z,101492.41
2023-06-11T06:21:27.830Z,101492.72
2023-06-11T06:23:54.679Z,101496.84
2023-06-11T06:26:21.685Z,101496.38
2023-06-11T06:28:48.440Z,101492.56
2023-06-11T06:31:15.567Z,101496.44
2023-06-11T06:33:42.534Z,101497.59
2023-06-11T06:36:10.842Z,101499.25
2023-06-11T06:38:37.741Z,101497.72
2023-06-11T06:41:04.741Z,101498.88
2023-06-11T06:43:31.566Z,101499.19
2023-06-11T06:45:58.393Z,101502.25
2023-06-11T06:48:25.360Z,101499.63
2023-06-11T06:50:52.406Z,101507.28
2023-06-11T06:53:20.593Z,101504.66
2023-06-11T06:55:48.900Z,101500.41
2023-06-11T06:58:16.734Z,101495.88
2023-06-11T07:00:43.544Z,101503.59
2023-06-11T07:03:10.741Z,101501.78
2023-06-11T07:05:37.466Z,101506.53
2023-06-11T07:08:04.466Z,101512.88
2023-06-11T07:10:32.924Z,101504.00
2023-06-11T07:13:00.822Z,101499.69
2023-06-11T07:15:27.873Z,101513.16
2023-06-11T07:17:54.793Z,101511.56
2023-06-11T07:20:21.647Z,101508.91
2023-06-11T07:22:48.469Z,101511.72
2023-06-11T07:25:15.386Z,101511.78
2023-06-11T07:27:44.156Z,101513.75
2023-06-11T07:30:12.260Z,101511.91
2023-06-11T07:32:39.374Z,101512.81
2023-06-11T07:35:06.500Z,101506.63
2023-06-11T07:37:33.306Z,101515.66
2023-06-11T07:40:00.030Z,101516.81
2023-06-11T07:42:26.735Z,101521.53
2023-06-11T07:44:54.857Z,101512.38
2023-06-11T07:47:21.801Z,101520.59
2023-06-11T07:49:48.681Z,101523.41
2023-06-11T07:52:15.650Z,101519.91
2023-06-11T07:54:42.686Z,101516.44
2023-06-11T07:57:11.191Z,101518.41
2023-06-11T07:59:38.400Z,101510.59
2023-06-11T08:02:07.727Z,101508.16
2023-06-11T08:04:34.393Z,101503.59
2023-06-11T08:07:02.697Z,101504.22
2023-06-11T08:09:31.045Z,101500.47
2023-06-11T08:11:58.013Z,101501.88
2023-06-11T08:14:24.849Z,101491.88
2023-06-11T08:16:51.648Z,101491.66
2023-06-11T08:19:20.126Z,101499.88
2023-06-11T08:21:48.442Z,101496.94
2023-06-11T08:24:15.513Z,101488.00
2023-06-11T08:26:42.193Z,101494.31
2023-06-11T08:29:09.117Z,101487.84
2023-06-11T08:31:35.939Z,101481.66
2023-06-11T08:34:02.620Z,101491.22
2023-06-11T08:36:30.689Z,101490.19
2023-06-11T08:38:57.493Z,101482.38
2023-06-11T08:41:24.414Z,101485.94
2023-06-11T08:43:51.162Z,101482.41
2023-06-11T08:46:23.634Z,101479.47
2023-06-11T08:48:57.715Z,101490.91
2023-06-11T08:51:27.131Z,101483.63
2023-06-11T08:53:55.175Z,101486.69
2023-06-11T08:56:22.310Z,101478.03
2023-06-11T08:58:51.562Z,101488.97
2023-06-11T09:01:22.725Z,101490.63
2023-06-11T09:03:49.610Z,101478.66
2023-06-11T09:06:16.325Z,101483.88
2023-06-11T09:08:42.973Z,101480.34
2023-06-11T09:11:10.966Z,101487.47
2023-06-11T09:13:37.600Z,101476.56
2023-06-11T09:16:04.857Z,101483.66
2023-06-11T09:18:31.653Z,101481.53
2023-06-11T09:21:01.844Z,101474.19
2023-06-11T09:23:31.576Z,101480.19
2023-06-11T09:25:59.071Z,101476.69
2023-06-11T09:28:31.647Z,101476.69
2023-06-11T09:30:59.476Z,101470.97
2023-06-11T09:33:28.537Z,101467.16
2023-06-11T09:35:56.022Z,101475.63
2023-06-11T09:38:22.979Z,101473.44
2023-06-11T09:40:51.381Z,101484.63
2023-06-11T09:43:20.837Z,101471.56
2023-06-11T09:45:53.935Z,101479.72
2023-06-11T09:48:21.433Z,101477.25
2023-06-11T09:50:49.685Z,101469.63
2023-06-11T09:53:16.793Z,101475.06
2023-06-11T09:55:51.018Z,101465.78
2023-06-11T09:58:24.403Z,101476.13
2023-06-11T10:00:59.881Z,101478.28
2023-06-11T10:03:26.856Z,101474.16
2023-06-11T10:05:54.961Z,101477.44
2023-06-11T10:08:25.223Z,101467.06
2023-06-11T10:10:57.126Z,101469.50
2023-06-11T10:13:30.702Z,101463.72
2023-06-11T10:16:00.097Z,101469.69
2023-06-11T10:18:27.761Z,101475.44
2023-06-11T10:20:56.254Z,101471.31
2023-06-11T10:23:22.954Z,101478.91
2023-06-11T10:25:55.590Z,101477.50
2023-06-11T10:28:36.806Z,101474.19
2023-06-11T10:31:05.448Z,101473.88
2023-06-11T10:33:44.660Z,101476.31
2023-06-11T10:36:22.437Z,101472.44
2023-06-11T10:38:49.208Z,101479.50
2023-06-11T10:41:16.296Z,101462.53
2023-06-11T10:43:48.132Z,101468.25
2023-06-11T10:46:19.464Z,101460.59
2023-06-11T10:48:51.962Z,101473.94
2023-06-11T10:51:18.859Z,101466.22
2023-06-11T10:53:56.129Z,101466.44
2023-06-11T10:56:23.795Z,101457.41
2023-06-11T10:58:52.333Z,101469.41
2023-06-11T11:01:23.911Z,101457.63
2023-06-11T11:03:51.863Z,101461.44
2023-06-11T11:06:26.364Z,101454.53
2023-06-11T11:08:53.353Z,101450.63
2023-06-11T11:11:20.118Z,101451.63
2023-06-11T11:13:47.081Z,101445.50
2023-06-11T11:16:15.952Z,101450.13
2023-06-11T11:18:46.850Z,101444.88
2023-06-11T11:21:13.575Z,101444.31
2023-06-11T11:23:40.261Z,101444.25
2023-06-11T11:26:07.125Z,101438.25
2023-06-11T11:28:35.438Z,101445.84
2023-06-11T11:31:03.485Z,101440.63
2023-06-11T11:33:30.239Z,101441.38
2023-06-11T11:35:59.193Z,101442.66
2023-06-11T11:38:33.630Z,101448.78
2023-06-11T11:41:02.337Z,101444.09
2023-06-11T11:43:37.675Z,101435.28
2023-06-11T11:46:14.731Z,101438.53
2023-06-11T11:48:43.239Z,101427.59
2023-06-11T11:51:12.754Z,101431.06
2023-06-11T11:53:40.542Z,101428.25
2023-06-11T11:56:07.775Z,101418.34
2023-06-11T11:58:39.099Z,101421.34
2023-06-11T12:01:09.935Z,101433.63
2023-06-11T12:03:38.256Z,101434.97
2023-06-11T12:06:06.908Z,101432.44
2023-06-11T12:08:36.939Z,101426.38
2023-06-11T12:11:05.086Z,101432.06
2023-06-11T12:13:31.953Z,101430.69
2023-06-11T12:16:01.952Z,101427.31
2023-06-11T12:18:30.865Z,101433.56
2023-06-11T12:21:00.752Z,101419.25
2023-06-11T12:23:27.811Z,101427.72
2023-06-11T12:25:55.991Z,101423.53
2023-06-11T12:28:22.736Z,101415.03
2023-06-11T12:30:49.600Z,101430.28
2023-06-11T12:33:17.159Z,101420.34
2023-06-11T12:35:44.463Z,101415.38
2023-06-11T12:38:11.656Z,101413.97
2023-06-11T12:40:40.878Z,101416.94
2023-06-11T12:43:08.997Z,101419.09
2023-06-11T12:45:38.444Z,101414.13
2023-06-11T12:48:05.975Z,101412.50
2023-06-11T12:50:32.894Z,101411.38
2023-06-11T12:53:00.453Z,101411.38
2023-06-11T12:55:27.248Z,101405.91
2023-06-11T12:57:53.897Z,101396.56
2023-06-11T13:00:23.309Z,101404.69
2023-06-11T13:02:50.397Z,101402.69
2023-06-11T13:05:17.199Z,101405.94
2023-06-11T13:07:45.950Z,101401.78
2023-06-11T13:10:13.324Z,101397.91
2023-06-11T13:12:40.509Z,101399.88
2023-06-11T13:15:08.432Z,101398.22
2023-06-11T13:17:36.717Z,101389.69
2023-06-11T13:20:03.802Z,101394.56
2023-06-11T13:22:30.926Z,101399.25
2023-06-11T13:24:57.689Z,101397.84
2023-06-11T13:27:24.745Z,101396.41
2023-06-11T13:29:51.848Z,101391.44
2023-06-11T13:32:19.862Z,101383.44
2023-06-11T13:34:48.244Z,101393.19
2023-06-11T13:37:15.475Z,101396.94
2023-06-11T13:39:42.250Z,101390.34
2023-06-11T13:42:08.981Z,101397.44
2023-06-11T13:44:35.974Z,101388.94
2023-06-11T13:47:03.117Z,101398.47
2023-06-11T13:49:29.996Z,101397.06
2023-06-11T13:51:58.528Z,101385.47
2023-06-11T13:54:29.207Z,101387.91
2023-06-11T13:56:56.016Z,101395.31
2023-06-11T13:59:22.792Z,101390.06
2023-06-11T14:01:49.561Z,101379.63
2023-06-11T14:04:16.275Z,101389.66
2023-06-11T14:06:42.928Z,101386.31
2023-06-11T14:09:11.730Z,101376.94
2023-06-11T14:11:38.482Z,101373.09
2023-06-11T14:14:05.188Z,101382.66
2023-06-11T14:16:32.032Z,101379.28
2023-06-11T14:18:58.782Z,101375.75
2023-06-11T14:21:26.049Z,101369.94
2023-06-11T14:23:53.057Z,101371.25
2023-06-11T14:26:21.132Z,101372.59
2023-06-11T14:28:47.866Z,101361.28
2023-06-11T14:31:14.657Z,101358.34
2023-06-11T14:33:41.419Z,101355.59
2023-06-11T14:36:08.562Z,101365.78
2023-06-11T14:38:35.451Z,101352.56
2023-06-11T14:41:02.218Z,101358.22
2023-06-11T14:43:30.357Z,101349.69
2023-06-11T14:45:57.454Z,101352.97
2023-06-11T14:48:24.172Z,101347.94
2023-06-11T14:50:50.885Z,101340.22
2023-06-11T14:53:17.592Z,101334.44
2023-06-11T14:55:44.638Z,101342.03
2023-06-11T14:58:11.289Z,101322.81
2023-06-11T15:00:39.353Z,101330.44
2023-06-11T15:03:09.117Z,101335.63
2023-06-11T15:05:39.284Z,101332.59
2023-06-11T15:08:06.587Z,101325.94
2023-06-11T15:10:33.748Z,101333.06
2023-06-11T15:13:00.513Z,101325.66
2023-06-11T15:15:27.165Z,101322.00
2023-06-11T15:17:55.196Z,101332.16
2023-06-11T15:20:24.706Z,101326.66
2023-06-11T15:22:51.416Z,101326.97
2023-06-11T15:25:18.211Z,101317.91
2023-06-11T15:27:44.992Z,101313.25
2023-06-11T15:30:15.093Z,101315.69
2023-06-11T15:32:42.065Z,101308.25
2023-06-11T15:35:12.173Z,101314.25
2023-06-11T15:37:39.115Z,101312.59
2023-06-11T15:40:07.330Z,101304.69
2023-06-11T15:42:34.102Z,101309.38
2023-06-11T15:45:01.851Z,101315.47
2023-06-11T15:47:28.593Z,101313.84
2023-06-11T15:49:55.386Z,101316.13
2023-06-11T15:52:23.525Z,101309.81
2023-06-11T15:54:50.347Z,101307.53
2023-06-11T15:57:18.619Z,101300.63
2023-06-11T15:59:45.417Z,101303.38
2023-06-11T16:02:12.147Z,101305.31
2023-06-11T16:04:39.438Z,101305.00
2023-06-11T16:07:08.049Z,101300.31
2023-06-11T16:09:36.636Z,101300.03
2023-06-11T16:12:03.885Z,101300.03
2023-06-11T16:14:30.612Z,101296.97
2023-06-11T16:16:58.489Z,101298.59
2023-06-11T16:19:25.163Z,101302.97
2023-06-11T16:21:51.801Z,101300.22
2023-06-11T16:24:18.512Z,101296.97
2023-06-11T16:26:47.284Z,101295.84
2023-06-11T16:29:14.171Z,101296.97
2023-06-11T16:31:43.523Z,101295.66
2023-06-11T16:34:10.864Z,101302.78
2023-06-11T16:36:37.549Z,101309.38
2023-06-11T16:39:21.916Z,101304.69
2023-06-11T16:41:52.479Z,101305.00
2023-06-11T16:44:19.138Z,101300.13
2023-06-11T16:46:46.880Z,101298.81
2023-06-11T16:49:13.637Z,101299.13
2023-06-11T16:51:40.397Z,101300.25
2023-06-11T16:54:08.408Z,101306.84
2023-06-11T16:56:36.455Z,101300.84
2023-06-11T16:59:04.490Z,101300.38
2023-06-11T17:01:31.296Z,101296.81
2023-06-11T17:03:58.349Z,101296.13
2023-06-11T17:06:27.318Z,101291.22
2023-06-11T17:08:54.283Z,101294.59
2023-06-11T17:11:20.936Z,101294.41
2023-06-11T17:13:47.701Z,101296.94
2023-06-11T17:16:16.064Z,101292.91
2023-06-11T17:18:43.822Z,101297.69
2023-06-11T17:21:10.854Z,101302.16
2023-06-11T17:23:37.593Z,101303.38
2023-06-11T17:26:04.363Z,101300.72
2023-06-11T17:28:31.392Z,101294.72
2023-06-11T17:30:58.472Z,101301.94
2023-06-11T17:33:26.876Z,101308.34
2023-06-11T17:35:56.798Z,101305.41
2023-06-11T17:38:25.372Z,101304.38
2023-06-11T17:40:52.257Z,101309.97
2023-06-11T17:43:18.943Z,101308.97
2023-06-11T17:45:48.015Z,101301.31
2023-06-11T17:48:16.934Z,101310.47
2023-06-11T17:50:44.953Z,101310.25
2023-06-11T17:53:12.187Z,101309.25
2023-06-11T17:55:38.870Z,101310.47
2023-06-11T17:58:05.503Z,101311.34
2023-06-11T18:00:33.580Z,101310.59
2023-06-11T18:03:00.690Z,101310.72
2023-06-11T18:05:29.331Z,101308.03
2023-06-11T18:07:57.776Z,101310.88
2023-06-11T18:10:24.434Z,101312.59
2023-06-11T18:12:51.526Z,101315.75
2023-06-11T18:15:32.392Z,101308.72
2023-06-11T18:18:00.820Z,101310.22
2023-06-11T18:20:29.352Z,101314.13
2023-06-11T18:22:57.612Z,101305.78
2023-06-11T18:25:26.229Z,101322.56
2023-06-11T18:27:53.273Z,101319.91
2023-06-11T18:30:21.820Z,101324.34
2023-06-11T18:32:48.766Z,101324.13
2023-06-11T18:35:15.776Z,101322.84
2023-06-11T18:37:42.424Z,101322.72
2023-06-11T18:40:11.268Z,101328.25
2023-06-11T18:42:38.281Z,101329.72
2023-06-11T18:45:05.859Z,101325.16
2023-06-11T18:47:32.542Z,101334.25
2023-06-11T18:49:59.281Z,101328.78
2023-06-11T18:52:25.994Z,101328.88
2023-06-11T18:54:52.713Z,101328.41
2023-06-11T18:57:20.949Z,101334.78
2023-06-11T18:59:48.222Z,101339.50
2023-06-11T19:02:14.944Z,101350.47
2023-06-11T19:04:42.501Z,101354.91
2023-06-11T19:07:09.422Z,101359.63
2023-06-11T19:09:36.482Z,101363.22
2023-06-11T19:12:03.679Z,101361.91
2023-06-11T19:14:31.704Z,101361.72
2023-06-11T19:16:58.642Z,101361.75
2023-06-11T19:19:25.522Z,101371.13
2023-06-11T19:21:52.282Z,101373.38
2023-06-11T19:24:19.081Z,101377.78
2023-06-11T19:26:45.755Z,101376.22
2023-06-11T19:29:12.803Z,101380.59
2023-06-11T19:31:41.132Z,101379.84
2023-06-11T19:34:08.568Z,101385.63
2023-06-11T19:36:37.066Z,101382.41
2023-06-11T19:39:03.893Z,101386.28
2023-06-11T19:41:31.683Z,101381.38
2023-06-11T19:43:58.584Z,101383.34
2023-06-11T19:46:27.497Z,101391.53
2023-06-11T19:48:57.509Z,101386.66
2023-06-11T19:51:24.181Z,101394.34
2023-06-11T19:53:53.110Z,101395.22
2023-06-11T19:56:20.224Z,101394.69
2023-06-11T19:58:47.899Z,101398.28
2023-06-11T20:01:17.987Z,101397.78
2023-06-11T20:03:45.464Z,101397.25
2023-06-11T20:06:14.275Z,101397.81
2023-06-11T20:08:41.476Z,101409.00
2023-06-11T20:11:12.331Z,101413.94
2023-06-11T20:13:43.860Z,101416.16
2023-06-11T20:16:11.173Z,101410.72
2023-06-11T20:18:38.235Z,101423.81
2023-06-11T20:21:04.980Z,101420.56
2023-06-11T20:23:33.418Z,101422.75
2023-06-11T20:26:00.642Z,101427.94
2023-06-11T20:28:29.471Z,101426.56
2023-06-11T20:30:56.799Z,101429.31
2023-06-11T20:33:23.738Z,101432.28
2023-06-11T20:35:50.809Z,101434.19
2023-06-11T20:38:17.608Z,101439.66
2023-06-11T20:40:46.868Z,101441.56
2023-06-11T20:43:13.863Z,101439.09
2023-06-11T20:45:44.094Z,101444.81
2023-06-11T20:48:18.159Z,101438.53
2023-06-11T20:50:44.894Z,101441.50
2023-06-11T20:53:28.057Z,101446.13
2023-06-11T20:55:59.850Z,101451.56
2023-06-11T20:58:26.811Z,101457.78
2023-06-11T21:00:53.592Z,101447.72
2023-06-11T21:03:20.311Z,101450.16
2023-06-11T21:05:47.302Z,101447.97
2023-06-11T21:08:15.896Z,101453.13
2023-06-11T21:10:42.548Z,101451.47
2023-06-11T21:13:10.585Z,101446.00
2023-06-11T21:15:37.301Z,101446.53
2023-06-11T21:18:04.556Z,101443.03
2023-06-11T21:20:34.290Z,101446.00
2023-06-11T21:23:01.154Z,101440.81
2023-06-11T21:25:28.035Z,101443.81
2023-06-11T21:27:54.977Z,101445.44
2023-06-11T21:30:23.679Z,101443.50
2023-06-11T21:32:50.541Z,101446.75
2023-06-11T21:35:17.390Z,101444.31
2023-06-11T21:37:44.289Z,101445.94
2023-06-11T21:40:13.135Z,101442.09
2023-06-11T21:42:40.417Z,101442.34
2023-06-11T21:45:07.857Z,101447.50
2023-06-11T21:47:38.257Z,101440.44
2023-06-11T21:50:06.944Z,101444.75
2023-06-11T21:52:38.632Z,101442.53
2023-06-11T21:55:07.088Z,101447.69
2023-06-11T21:57:33.972Z,101446.56
2023-06-11T22:00:11.967Z,101450.63
2023-06-11T22:02:42.201Z,101453.06
2023-06-11T22:05:10.441Z,101447.31
2023-06-11T22:07:37.667Z,101454.13
2023-06-11T22:10:05.518Z,101455.47
2023-06-11T22:12:42.000Z,101451.38
2023-06-11T22:15:11.422Z,101465.22
2023-06-11T22:17:40.334Z,101461.13
2023-06-11T22:20:13.717Z,101462.47
2023-06-11T22:22:43.458Z,101465.16
2023-06-11T22:25:12.087Z,101459.97
2023-06-11T22:27:40.838Z,101465.13
2023-06-11T22:30:09.177Z,101455.59
2023-06-11T22:32:36.579Z,101461.00
2023-06-11T22:35:03.585Z,101462.31
2023-06-11T22:37:31.594Z,101464.50
2023-06-11T22:39:58.324Z,101467.97
2023-06-11T22:42:25.253Z,101469.59
2023-06-11T22:44:51.944Z,101471.13
2023-06-11T22:47:18.858Z,101477.09
2023-06-11T22:49:45.994Z,101479.50
2023-06-11T22:52:12.721Z,101482.75
2023-06-11T22:54:40.793Z,101484.06
2023-06-11T22:57:07.662Z,101480.25
2023-06-11T22:59:35.138Z,101492.69
2023-06-11T23:02:02.112Z,101483.69
2023-06-11T23:04:29.676Z,101484.47
2023-06-11T23:06:56.983Z,101485.50
2023-06-11T23:09:24.329Z,101486.81
2023-06-11T23:11:52.544Z,101486.00
2023-06-11T23:14:19.405Z,101489.47
2023-06-11T23:16:49.576Z,101483.22
2023-06-11T23:19:18.702Z,101482.66
2023-06-11T23:21:45.751Z,101482.91
2023-06-11T23:24:18.320Z,101481.53
2023-06-11T23:26:46.269Z,101480.66
2023-06-11T23:29:16.083Z,101477.63
2023-06-11T23:31:43.698Z,101485.19
2023-06-11T23:34:11.843Z,101480.03
2023-06-11T23:36:41.364Z,101478.91
2023-06-11T23:39:09.125Z,101481.25
2023-06-11T23:41:36.043Z,101480.13
2023-06-11T23:44:03.417Z,101476.56
2023-06-11T23:46:31.761Z,101477.03
2023-06-11T23:48:58.481Z,101480.28
2023-06-11T23:51:25.727Z,101476.13
2023-06-11T23:53:53.548Z,101481.22
2023-06-11T23:56:20.553Z,101480.09
2023-06-11T23:58:47.598Z,101477.88
